NKS1586 KFLL-KMYR
Flight info
| Callsign | NKS1586 |
|---|---|
| Flight time | 1h 19m |
| Altitude | 33000 |
| Route | AGERS1 DUCEN Q87 JROSS |
| Aircraft | A320/M-SDE3FGHIRWY/LB1 |
Departure
| Time | 2026-05-04 01:39 |
|---|---|
| Airport | Fort Lauderdale Hollywood International Airport (KFLL) |
Arrival
| Time | 2026-05-04 02:58 |
|---|---|
| Airport | Myrtle Beach International Airport (KMYR) |
| Time | Latitude | Longitude | Altitude | Speed | Heading |
|---|---|---|---|---|---|
| 2026-05-04 01:04 | 26.06884 | -80.14431 | 16 ft | 0 kts | 0° |
| 2026-05-04 01:05 | 26.06883 | -80.14384 | 17 ft | 0 kts | 3° |
| 2026-05-04 01:16 | 26.06875 | -80.14385 | 16 ft | 3 kts | 2° |
| 2026-05-04 01:17 | 26.06855 | -80.14384 | 17 ft | 3 kts | 353° |
| 2026-05-04 01:17 | 26.06836 | -80.14380 | 18 ft | 3 kts | 335° |
| 2026-05-04 01:17 | 26.06821 | -80.14369 | 16 ft | 3 kts | 294° |
| 2026-05-04 01:17 | 26.06818 | -80.14360 | 16 ft | 0 kts | 270° |
| 2026-05-04 01:26 | 26.06818 | -80.14382 | 16 ft | 7 kts | 270° |
| 2026-05-04 01:26 | 26.06818 | -80.14452 | 16 ft | 10 kts | 270° |
| 2026-05-04 01:26 | 26.06817 | -80.14542 | 16 ft | 13 kts | 264° |
| 2026-05-04 01:27 | 26.06767 | -80.14632 | 15 ft | 16 kts | 263° |
| 2026-05-04 01:27 | 26.06765 | -80.14764 | 15 ft | 18 kts | 270° |
| 2026-05-04 01:27 | 26.06757 | -80.14907 | 18 ft | 16 kts | 229° |
| 2026-05-04 01:27 | 26.06695 | -80.14992 | 19 ft | 15 kts | 269° |
| 2026-05-04 01:28 | 26.06695 | -80.15117 | 20 ft | 17 kts | 270° |
| 2026-05-04 01:28 | 26.06695 | -80.15254 | 19 ft | 20 kts | 270° |
| 2026-05-04 01:28 | 26.06697 | -80.15428 | 16 ft | 24 kts | 270° |
| 2026-05-04 01:28 | 26.06697 | -80.15606 | 16 ft | 15 kts | 270° |
| 2026-05-04 01:29 | 26.06698 | -80.15662 | 16 ft | 0 kts | 270° |
| 2026-05-04 01:29 | 26.06698 | -80.15673 | 16 ft | 5 kts | 271° |
| 2026-05-04 01:29 | 26.06698 | -80.15723 | 16 ft | 8 kts | 270° |
| 2026-05-04 01:30 | 26.06699 | -80.15764 | 16 ft | 0 kts | 270° |
| 2026-05-04 01:31 | 26.06699 | -80.15765 | 16 ft | 1 kts | 270° |
| 2026-05-04 01:31 | 26.06699 | -80.15780 | 16 ft | 3 kts | 270° |
| 2026-05-04 01:32 | 26.06688 | -80.15810 | 16 ft | 5 kts | 231° |
| 2026-05-04 01:32 | 26.06682 | -80.15815 | 18 ft | 0 kts | 217° |
| 2026-05-04 01:36 | 26.06664 | -80.15821 | 16 ft | 7 kts | 193° |
| 2026-05-04 01:36 | 26.06609 | -80.15823 | 17 ft | 8 kts | 178° |
| 2026-05-04 01:36 | 26.06590 | -80.15778 | 19 ft | 7 kts | 90° |
| 2026-05-04 01:37 | 26.06589 | -80.15770 | 19 ft | 0 kts | 91° |
| 2026-05-04 01:37 | 26.06589 | -80.15769 | 19 ft | 1 kts | 91° |
| 2026-05-04 01:38 | 26.06588 | -80.15649 | 23 ft | 44 kts | 91° |
| 2026-05-04 01:38 | 26.06584 | -80.15040 | 19 ft | 110 kts | 90° |
| 2026-05-04 01:38 | 26.06578 | -80.14004 | 76 ft | 155 kts | 90° |
| 2026-05-04 01:38 | 26.06569 | -80.12717 | 440 ft | 167 kts | 89° |
| 2026-05-04 01:39 | 26.06603 | -80.11413 | 1059 ft | 170 kts | 79° |
| 2026-05-04 01:39 | 26.07059 | -80.10213 | 1694 ft | 170 kts | 53° |
| 2026-05-04 01:39 | 26.07763 | -80.09095 | 2070 ft | 187 kts | 56° |
| 2026-05-04 01:39 | 26.08534 | -80.07820 | 2334 ft | 210 kts | 50° |
| 2026-05-04 01:40 | 26.09768 | -80.06821 | 2598 ft | 234 kts | 20° |
| 2026-05-04 01:40 | 26.11380 | -80.06182 | 3003 ft | 258 kts | 18° |
| 2026-05-04 01:40 | 26.13114 | -80.05495 | 3700 ft | 269 kts | 18° |
| 2026-05-04 01:40 | 26.14926 | -80.04895 | 4613 ft | 274 kts | 4° |
| 2026-05-04 01:41 | 26.16807 | -80.05097 | 5568 ft | 275 kts | 339° |
| 2026-05-04 01:41 | 26.18624 | -80.05792 | 6603 ft | 278 kts | 337° |
| 2026-05-04 01:41 | 26.20441 | -80.06574 | 7525 ft | 279 kts | 328° |
| 2026-05-04 01:41 | 26.21998 | -80.07831 | 8425 ft | 277 kts | 311° |
| 2026-05-04 01:42 | 26.23147 | -80.09523 | 9328 ft | 274 kts | 295° |
| 2026-05-04 01:42 | 26.23881 | -80.11446 | 10135 ft | 274 kts | 288° |
| 2026-05-04 01:42 | 26.24673 | -80.13459 | 10467 ft | 297 kts | 296° |
| 2026-05-04 01:42 | 26.25931 | -80.15420 | 10666 ft | 325 kts | 309° |
| 2026-05-04 01:43 | 26.26323 | -80.15867 | 10768 ft | 331 kts | 313° |
| 2026-05-04 01:43 | 26.27645 | -80.17054 | 11235 ft | 339 kts | 322° |
| 2026-05-04 01:43 | 26.29714 | -80.18304 | 11798 ft | 349 kts | 329° |
| 2026-05-04 01:44 | 26.31907 | -80.19525 | 12461 ft | 353 kts | 329° |
| 2026-05-04 01:44 | 26.34109 | -80.20758 | 13132 ft | 356 kts | 329° |
| 2026-05-04 01:44 | 26.36342 | -80.21983 | 13815 ft | 361 kts | 332° |
| 2026-05-04 01:44 | 26.38761 | -80.22827 | 14392 ft | 371 kts | 344° |
| 2026-05-04 01:45 | 26.41362 | -80.23169 | 14963 ft | 378 kts | 350° |
| 2026-05-04 01:45 | 26.43982 | -80.23427 | 15511 ft | 381 kts | 349° |
| 2026-05-04 01:45 | 26.49337 | -80.23969 | 16628 ft | 389 kts | 349° |
| 2026-05-04 01:46 | 26.52044 | -80.24248 | 17205 ft | 393 kts | 349° |
| 2026-05-04 01:46 | 26.54774 | -80.24532 | 17813 ft | 397 kts | 348° |
| 2026-05-04 01:46 | 26.57529 | -80.24844 | 18360 ft | 400 kts | 346° |
| 2026-05-04 01:46 | 26.60310 | -80.25250 | 18856 ft | 403 kts | 345° |
| 2026-05-04 01:47 | 26.63091 | -80.25724 | 19376 ft | 406 kts | 343° |
| 2026-05-04 01:47 | 26.65882 | -80.26228 | 19915 ft | 409 kts | 343° |
| 2026-05-04 01:47 | 26.68712 | -80.26741 | 20463 ft | 413 kts | 343° |
| 2026-05-04 01:47 | 26.71492 | -80.27452 | 20991 ft | 408 kts | 334° |
| 2026-05-04 01:48 | 26.74154 | -80.28544 | 21487 ft | 408 kts | 331° |
| 2026-05-04 01:48 | 26.75919 | -80.29285 | 21830 ft | 410 kts | 331° |
| 2026-05-04 01:48 | 26.78604 | -80.30410 | 22313 ft | 413 kts | 331° |
| 2026-05-04 01:48 | 26.81308 | -80.31542 | 22790 ft | 416 kts | 330° |
| 2026-05-04 01:49 | 26.84035 | -80.32684 | 23247 ft | 419 kts | 330° |
| 2026-05-04 01:49 | 26.86790 | -80.33839 | 23651 ft | 424 kts | 330° |
| 2026-05-04 01:49 | 26.89563 | -80.35003 | 23985 ft | 427 kts | 330° |
| 2026-05-04 01:49 | 26.92347 | -80.36170 | 24378 ft | 430 kts | 330° |
| 2026-05-04 01:50 | 26.95147 | -80.37338 | 24765 ft | 432 kts | 330° |
| 2026-05-04 01:50 | 26.97983 | -80.38496 | 25147 ft | 434 kts | 330° |
| 2026-05-04 01:50 | 27.00833 | -80.39641 | 25528 ft | 436 kts | 331° |
| 2026-05-04 01:50 | 27.03698 | -80.40781 | 25900 ft | 438 kts | 331° |
| 2026-05-04 01:51 | 27.06585 | -80.41928 | 26280 ft | 440 kts | 331° |
| 2026-05-04 01:51 | 27.09474 | -80.43086 | 26650 ft | 442 kts | 330° |
| 2026-05-04 01:51 | 27.12360 | -80.44291 | 27025 ft | 443 kts | 329° |
| 2026-05-04 01:51 | 27.15233 | -80.45547 | 27438 ft | 444 kts | 328° |
| 2026-05-04 01:52 | 27.18083 | -80.46828 | 27804 ft | 445 kts | 328° |
| 2026-05-04 01:52 | 27.20957 | -80.48135 | 28173 ft | 447 kts | 328° |
| 2026-05-04 01:52 | 27.23848 | -80.49444 | 28540 ft | 449 kts | 328° |
| 2026-05-04 01:52 | 27.26763 | -80.50751 | 28903 ft | 451 kts | 328° |
| 2026-05-04 01:53 | 27.29686 | -80.52050 | 29274 ft | 453 kts | 329° |
| 2026-05-04 01:53 | 27.32623 | -80.53345 | 29787 ft | 452 kts | 329° |
| 2026-05-04 01:53 | 27.35536 | -80.54625 | 30366 ft | 449 kts | 328° |
| 2026-05-04 01:53 | 27.38442 | -80.55883 | 30840 ft | 448 kts | 329° |
| 2026-05-04 01:54 | 27.41384 | -80.57089 | 31239 ft | 449 kts | 329° |
| 2026-05-04 01:54 | 27.44340 | -80.58253 | 31620 ft | 450 kts | 330° |
| 2026-05-04 01:54 | 27.47313 | -80.59399 | 31994 ft | 451 kts | 330° |
| 2026-05-04 01:54 | 27.50276 | -80.60541 | 32377 ft | 451 kts | 329° |
| 2026-05-04 01:55 | 27.53252 | -80.61701 | 32765 ft | 451 kts | 329° |
| 2026-05-04 01:55 | 27.56217 | -80.62870 | 33019 ft | 452 kts | 329° |
| 2026-05-04 01:55 | 27.62125 | -80.65232 | 33074 ft | 456 kts | 329° |
| 2026-05-04 01:56 | 27.68090 | -80.67622 | 33073 ft | 457 kts | 329° |
| 2026-05-04 01:56 | 27.73999 | -80.69983 | 33073 ft | 457 kts | 329° |
| 2026-05-04 01:57 | 27.79991 | -80.72371 | 33079 ft | 456 kts | 328° |
| 2026-05-04 01:57 | 27.85970 | -80.74759 | 33086 ft | 455 kts | 328° |
| 2026-05-04 01:58 | 27.91937 | -80.77157 | 33091 ft | 455 kts | 328° |
| 2026-05-04 01:58 | 27.97895 | -80.79551 | 33096 ft | 455 kts | 328° |
| 2026-05-04 01:59 | 28.03824 | -80.81932 | 33102 ft | 456 kts | 328° |
| 2026-05-04 01:59 | 28.09793 | -80.84329 | 33092 ft | 455 kts | 328° |
| 2026-05-04 02:00 | 28.15749 | -80.86725 | 33070 ft | 455 kts | 328° |
| 2026-05-04 02:00 | 28.21687 | -80.89118 | 33073 ft | 455 kts | 328° |
| 2026-05-04 02:01 | 28.27661 | -80.91536 | 33117 ft | 456 kts | 328° |
| 2026-05-04 02:01 | 28.33644 | -80.93960 | 33121 ft | 455 kts | 328° |
| 2026-05-04 02:02 | 28.39597 | -80.96366 | 33096 ft | 454 kts | 328° |
| 2026-05-04 02:02 | 28.45540 | -80.98765 | 33088 ft | 452 kts | 328° |
| 2026-05-04 02:03 | 28.51480 | -81.01174 | 33091 ft | 453 kts | 328° |
| 2026-05-04 02:03 | 28.57414 | -81.03588 | 33092 ft | 453 kts | 327° |
| 2026-05-04 02:04 | 28.63313 | -81.05988 | 33110 ft | 453 kts | 328° |
| 2026-05-04 02:04 | 28.69268 | -81.08403 | 33116 ft | 453 kts | 328° |
| 2026-05-04 02:05 | 28.75191 | -81.10808 | 33113 ft | 451 kts | 327° |
| 2026-05-04 02:05 | 28.81058 | -81.13209 | 33114 ft | 451 kts | 327° |
| 2026-05-04 02:06 | 28.86972 | -81.15632 | 33112 ft | 452 kts | 327° |
| 2026-05-04 02:06 | 28.92906 | -81.18061 | 33123 ft | 452 kts | 328° |
| 2026-05-04 02:07 | 28.98826 | -81.20481 | 33186 ft | 452 kts | 328° |
| 2026-05-04 02:07 | 29.04724 | -81.22900 | 33175 ft | 452 kts | 328° |
| 2026-05-04 02:08 | 29.10645 | -81.25334 | 33166 ft | 452 kts | 328° |
| 2026-05-04 02:08 | 29.16525 | -81.27741 | 33139 ft | 447 kts | 328° |
| 2026-05-04 02:09 | 29.22389 | -81.30153 | 33142 ft | 448 kts | 328° |
| 2026-05-04 02:09 | 29.28397 | -81.32269 | 33147 ft | 465 kts | 340° |
| 2026-05-04 02:10 | 29.31664 | -81.32543 | 33160 ft | 479 kts | 349° |
| 2026-05-04 02:10 | 29.35000 | -81.32621 | 33161 ft | 476 kts | 347° |
| 2026-05-04 02:10 | 29.41691 | -81.33040 | 33143 ft | 474 kts | 345° |
| 2026-05-04 02:11 | 29.48270 | -81.33527 | 33150 ft | 474 kts | 346° |
| 2026-05-04 02:11 | 29.54848 | -81.33951 | 33182 ft | 475 kts | 347° |
| 2026-05-04 02:12 | 29.61452 | -81.34325 | 33143 ft | 473 kts | 347° |
| 2026-05-04 02:12 | 29.68018 | -81.34691 | 33150 ft | 473 kts | 347° |
| 2026-05-04 02:13 | 29.74589 | -81.35073 | 33154 ft | 472 kts | 347° |
| 2026-05-04 02:13 | 29.81222 | -81.35471 | 33159 ft | 472 kts | 347° |
| 2026-05-04 02:14 | 29.87769 | -81.35868 | 33191 ft | 472 kts | 347° |
| 2026-05-04 02:14 | 29.94339 | -81.36261 | 33179 ft | 472 kts | 347° |
| 2026-05-04 02:15 | 30.00876 | -81.36645 | 33172 ft | 472 kts | 347° |
| 2026-05-04 02:15 | 30.07466 | -81.37040 | 33166 ft | 472 kts | 347° |
| 2026-05-04 02:16 | 30.14016 | -81.37437 | 33163 ft | 472 kts | 347° |
| 2026-05-04 02:16 | 30.20567 | -81.37832 | 33132 ft | 471 kts | 348° |
| 2026-05-04 02:17 | 30.27118 | -81.38213 | 33135 ft | 471 kts | 348° |
| 2026-05-04 02:17 | 30.33670 | -81.38602 | 33148 ft | 471 kts | 347° |
| 2026-05-04 02:18 | 30.40218 | -81.39002 | 33147 ft | 472 kts | 347° |
| 2026-05-04 02:18 | 30.45722 | -81.39336 | 33145 ft | 472 kts | 347° |
| 2026-05-04 02:19 | 30.52253 | -81.39703 | 33164 ft | 473 kts | 348° |
| 2026-05-04 02:19 | 30.58874 | -81.40038 | 33166 ft | 473 kts | 348° |
| 2026-05-04 02:20 | 30.65445 | -81.40373 | 33169 ft | 473 kts | 348° |
| 2026-05-04 02:20 | 30.72031 | -81.40722 | 33188 ft | 473 kts | 348° |
| 2026-05-04 02:21 | 30.78607 | -81.41077 | 33174 ft | 473 kts | 348° |
| 2026-05-04 02:21 | 30.85185 | -81.41430 | 33162 ft | 473 kts | 348° |
| 2026-05-04 02:22 | 30.91408 | -81.41755 | 33159 ft | 473 kts | 348° |
| 2026-05-04 02:22 | 30.98001 | -81.42058 | 33262 ft | 479 kts | 351° |
| 2026-05-04 02:23 | 31.01069 | -81.42206 | 33155 ft | 476 kts | 348° |
| 2026-05-04 02:23 | 31.04242 | -81.42380 | 33127 ft | 471 kts | 348° |
| 2026-05-04 02:23 | 31.10876 | -81.42774 | 33117 ft | 464 kts | 348° |
| 2026-05-04 02:24 | 31.17300 | -81.43141 | 33149 ft | 471 kts | 348° |
| 2026-05-04 02:24 | 31.24066 | -81.43129 | 33224 ft | 501 kts | 1° |
| 2026-05-04 02:25 | 31.27513 | -81.42190 | 33150 ft | 520 kts | 13° |
| 2026-05-04 02:25 | 31.30893 | -81.40498 | 33203 ft | 531 kts | 21° |
| 2026-05-04 02:25 | 31.37579 | -81.36760 | 33164 ft | 529 kts | 19° |
| 2026-05-04 02:26 | 31.40853 | -81.34997 | 33162 ft | 513 kts | 19° |
| 2026-05-04 02:26 | 31.44083 | -81.33275 | 33159 ft | 507 kts | 19° |
| 2026-05-04 02:26 | 31.50495 | -81.29863 | 33191 ft | 505 kts | 19° |
| 2026-05-04 02:27 | 31.56875 | -81.26413 | 33151 ft | 506 kts | 19° |
| 2026-05-04 02:27 | 31.63263 | -81.22912 | 33142 ft | 506 kts | 19° |
| 2026-05-04 02:28 | 31.69612 | -81.19434 | 33131 ft | 506 kts | 19° |
| 2026-05-04 02:28 | 31.75758 | -81.16074 | 33130 ft | 506 kts | 19° |
| 2026-05-04 02:29 | 31.82176 | -81.12568 | 33148 ft | 506 kts | 19° |
| 2026-05-04 02:29 | 31.88559 | -81.09074 | 33138 ft | 506 kts | 19° |
| 2026-05-04 02:30 | 31.94857 | -81.05612 | 33129 ft | 506 kts | 20° |
| 2026-05-04 02:30 | 32.01201 | -81.02114 | 33127 ft | 506 kts | 20° |
| 2026-05-04 02:31 | 32.07549 | -80.98583 | 33121 ft | 504 kts | 20° |
| 2026-05-04 02:31 | 32.13523 | -80.95227 | 33118 ft | 504 kts | 20° |
| 2026-05-04 02:32 | 32.19802 | -80.91690 | 33157 ft | 504 kts | 20° |
| 2026-05-04 02:32 | 32.26180 | -80.88100 | 33134 ft | 505 kts | 20° |
| 2026-05-04 02:33 | 32.32528 | -80.84538 | 33177 ft | 506 kts | 20° |
| 2026-05-04 02:33 | 32.38882 | -80.80963 | 33163 ft | 506 kts | 20° |
| 2026-05-04 02:34 | 32.45244 | -80.77364 | 33164 ft | 506 kts | 20° |
| 2026-05-04 02:34 | 32.51591 | -80.73776 | 33163 ft | 506 kts | 20° |
| 2026-05-04 02:35 | 32.57947 | -80.70190 | 33182 ft | 505 kts | 20° |
| 2026-05-04 02:35 | 32.64269 | -80.66612 | 33169 ft | 505 kts | 20° |
| 2026-05-04 02:36 | 32.70425 | -80.62543 | 33167 ft | 512 kts | 33° |
| 2026-05-04 02:36 | 32.75320 | -80.56877 | 33148 ft | 517 kts | 48° |
| 2026-05-04 02:38 | 32.76414 | -80.55342 | 33147 ft | 517 kts | 47° |
| 2026-05-04 02:38 | 32.81081 | -80.48810 | 33163 ft | 518 kts | 47° |
| 2026-05-04 02:39 | 32.85781 | -80.42234 | 32614 ft | 520 kts | 47° |
| 2026-05-04 02:39 | 32.88136 | -80.38935 | 31671 ft | 524 kts | 48° |
| 2026-05-04 02:39 | 32.90485 | -80.35644 | 31044 ft | 520 kts | 48° |
| 2026-05-04 02:40 | 32.92824 | -80.32363 | 30360 ft | 518 kts | 48° |
| 2026-05-04 02:40 | 32.95153 | -80.29091 | 29599 ft | 515 kts | 48° |
| 2026-05-04 02:40 | 32.97448 | -80.25855 | 28939 ft | 509 kts | 48° |
| 2026-05-04 02:40 | 32.99727 | -80.22642 | 28269 ft | 505 kts | 48° |
| 2026-05-04 02:41 | 33.01953 | -80.19505 | 27589 ft | 500 kts | 48° |
| 2026-05-04 02:41 | 33.04218 | -80.16311 | 26910 ft | 495 kts | 48° |
| 2026-05-04 02:41 | 33.06398 | -80.13230 | 26268 ft | 490 kts | 48° |
| 2026-05-04 02:41 | 33.08615 | -80.10095 | 25629 ft | 486 kts | 47° |
| 2026-05-04 02:42 | 33.10762 | -80.07054 | 25115 ft | 480 kts | 47° |
| 2026-05-04 02:42 | 33.12902 | -80.04019 | 24481 ft | 477 kts | 47° |
| 2026-05-04 02:42 | 33.15015 | -80.01022 | 24039 ft | 468 kts | 47° |
| 2026-05-04 02:42 | 33.17094 | -79.98071 | 23222 ft | 459 kts | 47° |
| 2026-05-04 02:43 | 33.19116 | -79.95198 | 22698 ft | 440 kts | 47° |
| 2026-05-04 02:43 | 33.21043 | -79.92456 | 22154 ft | 425 kts | 47° |
| 2026-05-04 02:43 | 33.22909 | -79.89798 | 21645 ft | 409 kts | 47° |
| 2026-05-04 02:43 | 33.24710 | -79.87238 | 21127 ft | 395 kts | 47° |
| 2026-05-04 02:44 | 33.26460 | -79.84753 | 20648 ft | 388 kts | 47° |
| 2026-05-04 02:44 | 33.28190 | -79.82298 | 20130 ft | 385 kts | 47° |
| 2026-05-04 02:44 | 33.29923 | -79.79839 | 19621 ft | 386 kts | 47° |
| 2026-05-04 02:44 | 33.31654 | -79.77373 | 19074 ft | 387 kts | 47° |
| 2026-05-04 02:45 | 33.33384 | -79.74907 | 18560 ft | 388 kts | 47° |
| 2026-05-04 02:45 | 33.35115 | -79.72440 | 17958 ft | 389 kts | 47° |
| 2026-05-04 02:45 | 33.36849 | -79.69963 | 17420 ft | 387 kts | 47° |
| 2026-05-04 02:45 | 33.38603 | -79.67450 | 16701 ft | 390 kts | 47° |
| 2026-05-04 02:46 | 33.40338 | -79.64969 | 16149 ft | 387 kts | 47° |
| 2026-05-04 02:46 | 33.42058 | -79.62508 | 15600 ft | 385 kts | 47° |
| 2026-05-04 02:46 | 33.43775 | -79.60048 | 15028 ft | 383 kts | 47° |
| 2026-05-04 02:46 | 33.45474 | -79.57613 | 14504 ft | 380 kts | 48° |
| 2026-05-04 02:47 | 33.46622 | -79.55962 | 14126 ft | 379 kts | 48° |
| 2026-05-04 02:47 | 33.48294 | -79.53553 | 13503 ft | 377 kts | 48° |
| 2026-05-04 02:47 | 33.49971 | -79.51141 | 12961 ft | 372 kts | 48° |
| 2026-05-04 02:47 | 33.51636 | -79.48746 | 12441 ft | 367 kts | 48° |
| 2026-05-04 02:48 | 33.53264 | -79.46409 | 11914 ft | 363 kts | 48° |
| 2026-05-04 02:48 | 33.54872 | -79.44096 | 11380 ft | 359 kts | 48° |
| 2026-05-04 02:48 | 33.56465 | -79.41801 | 10867 ft | 356 kts | 48° |
| 2026-05-04 02:48 | 33.58035 | -79.39539 | 10390 ft | 351 kts | 48° |
| 2026-05-04 02:49 | 33.59565 | -79.37329 | 10258 ft | 336 kts | 48° |
| 2026-05-04 02:49 | 33.61023 | -79.35220 | 10135 ft | 323 kts | 48° |
| 2026-05-04 02:49 | 33.62436 | -79.33181 | 10009 ft | 311 kts | 48° |
| 2026-05-04 02:49 | 33.63810 | -79.31201 | 9864 ft | 300 kts | 47° |
| 2026-05-04 02:50 | 33.65134 | -79.29292 | 9513 ft | 294 kts | 48° |
| 2026-05-04 02:50 | 33.66434 | -79.27412 | 8860 ft | 291 kts | 48° |
| 2026-05-04 02:50 | 33.67720 | -79.25553 | 8246 ft | 287 kts | 48° |
| 2026-05-04 02:50 | 33.68987 | -79.23720 | 7685 ft | 283 kts | 48° |
| 2026-05-04 02:51 | 33.70233 | -79.21917 | 7192 ft | 280 kts | 48° |
| 2026-05-04 02:51 | 33.71493 | -79.20097 | 6800 ft | 281 kts | 48° |
| 2026-05-04 02:51 | 33.72725 | -79.18310 | 6528 ft | 278 kts | 48° |
| 2026-05-04 02:51 | 33.73932 | -79.16557 | 6122 ft | 275 kts | 48° |
| 2026-05-04 02:52 | 33.75184 | -79.14741 | 5433 ft | 276 kts | 49° |
| 2026-05-04 02:52 | 33.76411 | -79.12963 | 4822 ft | 276 kts | 49° |
| 2026-05-04 02:52 | 33.77637 | -79.11184 | 4281 ft | 272 kts | 49° |
| 2026-05-04 02:52 | 33.78837 | -79.09444 | 3992 ft | 260 kts | 49° |
| 2026-05-04 02:53 | 33.79932 | -79.07849 | 3933 ft | 237 kts | 49° |
| 2026-05-04 02:53 | 33.80957 | -79.06350 | 3882 ft | 231 kts | 49° |
| 2026-05-04 02:53 | 33.82014 | -79.04810 | 3815 ft | 236 kts | 48° |
| 2026-05-04 02:53 | 33.83061 | -79.03290 | 3716 ft | 236 kts | 48° |
| 2026-05-04 02:54 | 33.84100 | -79.01776 | 3609 ft | 235 kts | 50° |
| 2026-05-04 02:54 | 33.84869 | -78.99991 | 3218 ft | 245 kts | 83° |
| 2026-05-04 02:54 | 33.84552 | -78.98075 | 3022 ft | 231 kts | 127° |
| 2026-05-04 02:54 | 33.83356 | -78.96867 | 2839 ft | 224 kts | 159° |
| 2026-05-04 02:55 | 33.80406 | -78.95934 | 2280 ft | 214 kts | 172° |
| 2026-05-04 02:55 | 33.78987 | -78.95585 | 2014 ft | 204 kts | 171° |
| 2026-05-04 02:55 | 33.77625 | -78.95245 | 1736 ft | 192 kts | 171° |
| 2026-05-04 02:56 | 33.76402 | -78.94938 | 1525 ft | 174 kts | 171° |
| 2026-05-04 02:56 | 33.75246 | -78.94649 | 1273 ft | 161 kts | 171° |
| 2026-05-04 02:56 | 33.74201 | -78.94387 | 1055 ft | 146 kts | 172° |
| 2026-05-04 02:56 | 33.73230 | -78.94145 | 861 ft | 135 kts | 171° |
| 2026-05-04 02:57 | 33.72332 | -78.93916 | 733 ft | 129 kts | 172° |
| 2026-05-04 02:57 | 33.71449 | -78.93691 | 519 ft | 130 kts | 172° |
| 2026-05-04 02:57 | 33.70569 | -78.93479 | 367 ft | 128 kts | 171° |
| 2026-05-04 02:57 | 33.69702 | -78.93259 | 153 ft | 127 kts | 173° |
| 2026-05-04 02:58 | 33.68843 | -78.93046 | 36 ft | 119 kts | 172° |
| 2026-05-04 02:58 | 33.68176 | -78.92883 | 31 ft | 74 kts | 168° |
| 2026-05-04 02:58 | 33.67829 | -78.92796 | 32 ft | 39 kts | 168° |
| 2026-05-04 02:58 | 33.67607 | -78.92701 | 31 ft | 23 kts | 147° |
| 2026-05-04 02:59 | 33.67520 | -78.92618 | 32 ft | 10 kts | 138° |
| 2026-05-04 02:59 | 33.67474 | -78.92561 | 32 ft | 9 kts | 118° |
| 2026-05-04 02:59 | 33.67516 | -78.92518 | 32 ft | 10 kts | 356° |
| 2026-05-04 02:59 | 33.67603 | -78.92538 | 32 ft | 15 kts | 349° |
| 2026-05-04 03:00 | 33.67709 | -78.92563 | 31 ft | 18 kts | 348° |
| 2026-05-04 03:00 | 33.67833 | -78.92593 | 31 ft | 21 kts | 349° |
| 2026-05-04 03:00 | 33.67986 | -78.92630 | 32 ft | 24 kts | 348° |
| 2026-05-04 03:00 | 33.68067 | -78.92648 | 32 ft | 7 kts | 1° |
| 2026-05-04 03:01 | 33.68093 | -78.92602 | 32 ft | 8 kts | 77° |
| 2026-05-04 03:01 | 33.68097 | -78.92584 | 30 ft | 0 kts | 77° |
| 2026-05-04 03:01 | 33.68101 | -78.92561 | 32 ft | 7 kts | 77° |
| 2026-05-04 03:01 | 33.68115 | -78.92489 | 32 ft | 11 kts | 77° |
| 2026-05-04 03:02 | 33.68122 | -78.92407 | 32 ft | 7 kts | 103° |
| 2026-05-04 03:02 | 33.68093 | -78.92379 | 32 ft | 4 kts | 167° |
| 2026-05-04 03:02 | 33.68085 | -78.92377 | 32 ft | 2 kts | 167° |
| 2026-05-04 03:02 | 33.68084 | -78.92376 | 32 ft | 0 kts | 167° |